Time;durP1;ratioP1;P1;durP2;ratioP2;P2;SDS_P1;SDS_P2;PMS_P1;PMS_P2;Temp;Humidity;BMP_temperature;BMP_pressure;BME280_temperature;BME280_humidity;BME280_pressure;Samples;Min_cycle;Max_cycle;Signal;HPM_P1;HPM_P2
2024/01/16 00:01:25;;;;;;;;;51.75;43.75;;;;;2.63;59.28;100687.91;5132534;27;62155;-82
2024/01/16 00:03:51;;;;;;;;;47.25;40.50;;;;;2.56;60.41;100677.56;5119361;27;45409;-84
2024/01/16 00:06:16;;;;;;;;;68.75;54.75;;;;;2.60;60.61;100687.06;5119984;27;45613;-81
2024/01/16 00:08:41;;;;;;;;;60.75;49.75;;;;;2.61;60.77;100686.22;5119479;27;45471;-83
2024/01/16 00:11:07;;;;;;;;;69.25;51.50;;;;;2.62;60.63;100685.31;5117449;27;65241;-83
2024/01/16 00:13:33;;;;;;;;;58.50;45.25;;;;;2.52;61.23;100660.16;5117032;27;45388;-83
2024/01/16 00:15:58;;;;;;;;;61.25;50.00;;;;;2.58;61.03;100665.25;5122757;27;45353;-84
2024/01/16 00:18:23;;;;;;;;;61.50;50.00;;;;;2.57;60.71;100668.78;5131450;27;45183;-79
2024/01/16 00:20:49;;;;;;;;;66.75;52.75;;;;;2.53;61.31;100667.13;5134950;27;58542;-81
2024/01/16 00:23:14;;;;;;;;;67.75;55.50;;;;;2.54;61.59;100674.09;5130617;27;62743;-80
2024/01/16 00:25:40;;;;;;;;;71.00;54.00;;;;;2.52;61.58;100660.16;5127489;27;46615;-81
2024/01/16 00:28:05;;;;;;;;;62.67;53.33;;;;;2.49;61.78;100675.97;5131158;27;45581;-81
2024/01/16 00:30:31;;;;;;;;;73.67;56.33;;;;;2.43;61.84;100668.22;5136982;27;46129;-84
2024/01/16 00:32:56;;;;;;;;;63.00;48.75;;;;;2.41;61.75;100673.50;5143886;27;45250;-82
2024/01/16 00:35:21;;;;;;;;;76.00;60.67;;;;;2.31;61.77;100662.31;5123483;27;45340;-85
2024/01/16 00:37:47;;;;;;;;;82.00;61.33;;;;;2.36;62.08;100678.84;5124715;27;49037;-81
2024/01/16 00:40:13;;;;;;;;;68.00;53.67;;;;;2.35;61.92;100674.50;5137135;27;53778;-81
2024/01/16 00:42:38;;;;;;;;;76.00;61.33;;;;;2.32;62.17;100674.56;5120695;27;45509;-84
2024/01/16 00:45:04;;;;;;;;;78.00;64.33;;;;;2.32;62.45;100678.94;5130228;27;45317;-84
2024/01/16 00:47:29;;;;;;;;;78.33;61.67;;;;;2.30;62.93;100681.59;5140145;27;45417;-82
2024/01/16 00:49:55;;;;;;;;;78.33;59.33;;;;;2.21;62.71;100676.53;5130207;27;47963;-82
2024/01/16 00:52:20;;;;;;;;;74.50;55.25;;;;;2.13;62.44;100667.09;5123027;27;45467;-86
2024/01/16 00:54:45;;;;;;;;;71.67;59.33;;;;;2.15;62.79;100660.94;5141844;27;45405;-80
2024/01/16 00:57:11;;;;;;;;;76.00;58.33;;;;;2.17;62.88;100661.75;5110467;27;45361;-82
2024/01/16 00:59:37;;;;;;;;;65.67;55.33;;;;;2.15;62.63;100666.16;5129097;27;46099;-82
2024/01/16 01:02:03;;;;;;;;;74.00;57.67;;;;;2.17;62.77;100674.88;5124956;27;45539;-80
2024/01/16 01:04:28;;;;;;;;;69.67;57.67;;;;;2.15;63.50;100670.56;5120967;27;45349;-80
2024/01/16 01:06:54;;;;;;;;;74.00;58.00;;;;;2.12;63.48;100665.38;5137039;27;45463;-81
2024/01/16 01:09:19;;;;;;;;;65.00;55.33;;;;;2.11;63.43;100669.75;5138863;27;53151;-80
2024/01/16 01:11:45;;;;;;;;;75.00;59.67;;;;;2.09;63.69;100661.06;5141158;27;45302;-80
2024/01/16 01:14:10;;;;;;;;;77.33;58.00;;;;;2.13;62.67;100673.22;5125505;27;45251;-85
2024/01/16 01:16:35;;;;;;;;;81.33;63.00;;;;;2.17;62.88;100664.38;5121560;27;45453;-81
2024/01/16 01:19:01;;;;;;;;;84.00;64.33;;;;;2.23;62.41;100643.28;5101622;27;47279;-81
2024/01/16 01:21:26;;;;;;;;;75.00;60.33;;;;;2.01;63.24;100621.00;5137425;27;45452;-80
2024/01/16 01:23:52;;;;;;;;;78.67;59.00;;;;;2.12;63.32;100650.50;5135291;27;45215;-83
2024/01/16 01:26:20;;;;;;;;;75.67;59.00;;;;;2.12;63.26;100652.25;5136459;27;45343;-84
2024/01/16 01:28:46;;;;;;;;;78.00;61.67;;;;;2.11;63.74;100661.91;5130718;27;46247;-84
2024/01/16 01:31:12;;;;;;;;;70.33;58.33;;;;;2.08;63.35;100661.94;5128468;27;45340;-84
2024/01/16 01:33:37;;;;;;;;;75.33;62.67;;;;;2.07;63.85;100662.81;5142295;27;45243;-81
2024/01/16 01:36:02;;;;;;;;;77.00;63.67;;;;;2.04;63.75;100662.91;5128019;27;45550;-83
2024/01/16 01:38:28;;;;;;;;;91.00;64.67;;;;;2.02;63.85;100669.94;5127240;27;46888;-81
2024/01/16 01:40:53;;;;;;;;;71.00;58.67;;;;;1.97;64.05;100663.94;5143061;27;45283;-81
2024/01/16 01:43:25;;;;;;;;;70.00;57.67;;;;;1.89;63.74;100657.97;5133628;27;45462;-81
2024/01/16 01:45:57;;;;;;;;;81.67;63.33;;;;;1.95;63.92;100671.84;5122428;27;45535;-84
2024/01/16 01:48:23;;;;;;;;;80.33;63.00;;;;;1.95;63.78;100681.44;5138893;27;45301;-85
2024/01/16 01:50:48;;;;;;;;;77.33;61.33;;;;;1.91;64.14;100685.88;5124262;27;45409;-86
2024/01/16 01:53:14;;;;;;;;;78.00;63.33;;;;;1.92;64.02;100695.47;5125965;27;45524;-81
2024/01/16 01:55:41;;;;;;;;;82.33;61.00;;;;;1.85;64.68;100691.25;5133097;27;45340;-86
2024/01/16 01:58:07;;;;;;;;;76.67;60.33;;;;;1.77;64.89;100673.03;5121687;27;46256;-85
2024/01/16 02:00:33;;;;;;;;;82.33;64.00;;;;;1.83;65.45;100679.06;5125499;27;45434;-86
2024/01/16 02:03:00;;;;;;;;;75.00;58.00;;;;;1.90;64.29;100691.16;5136269;27;45229;-86
2024/01/16 02:05:25;;;;;;;;;71.67;60.33;;;;;1.94;64.69;100690.19;5134920;27;45469;-85
2024/01/16 02:07:51;;;;;;;;;80.33;63.67;;;;;1.90;64.57;100675.41;5122960;27;45764;-86
2024/01/16 02:10:17;;;;;;;;;76.67;63.00;;;;;1.85;64.39;100672.91;5123423;27;45311;-84
2024/01/16 02:12:42;;;;;;;;;77.33;63.33;;;;;1.85;64.78;100678.13;5131531;27;45226;-83
2024/01/16 02:15:08;;;;;;;;;79.33;61.67;;;;;1.87;64.94;100680.72;5143488;27;45163;-80
2024/01/16 02:17:33;;;;;;;;;79.33;63.00;;;;;1.85;64.68;100682.53;5128372;27;46013;-86
2024/01/16 02:19:59;;;;;;;;;87.67;67.00;;;;;1.80;64.57;100681.72;5141463;27;51934;-83
2024/01/16 02:22:28;;;;;;;;;80.00;62.00;;;;;1.80;64.40;100668.63;5125555;27;45317;-87
2024/01/16 02:24:54;;;;;;;;;75.00;62.00;;;;;1.80;65.10;100668.63;5132847;27;46727;-88
2024/01/16 02:27:20;;;;;;;;;82.67;65.67;;;;;1.73;64.93;100652.16;5135238;27;46021;-86
2024/01/16 02:29:46;;;;;;;;;85.33;66.67;;;;;1.78;64.69;100666.88;5127017;27;46435;-88
2024/01/16 02:32:12;;;;;;;;;79.00;62.67;;;;;1.74;64.66;100649.50;5133949;27;45520;-85
2024/01/16 02:34:38;;;;;;;;;77.67;62.67;;;;;1.80;64.88;100648.50;5121955;27;45400;-84
2024/01/16 02:37:04;;;;;;;;;82.33;67.33;;;;;1.80;64.76;100650.25;5144478;27;45313;-91
2024/01/16 02:39:29;;;;;;;;;88.33;67.33;;;;;1.82;65.01;100651.94;5142597;27;45506;-85
2024/01/16 02:41:54;;;;;;;;;80.67;63.67;;;;;1.67;65.12;100632.13;5119587;27;45398;-88
2024/01/16 02:44:20;;;;;;;;;90.00;64.67;;;;;1.73;65.01;100637.28;5132502;27;50994;-87
2024/01/16 02:46:45;;;;;;;;;78.33;64.67;;;;;1.76;65.25;100650.31;5124470;27;45430;-81
2024/01/16 02:49:10;;;;;;;;;84.00;61.67;;;;;1.71;65.72;100640.84;5123293;27;45255;-85
2024/01/16 02:51:36;;;;;;;;;83.33;67.00;;;;;1.71;65.71;100640.84;5128407;27;45387;-84
2024/01/16 02:54:01;;;;;;;;;86.67;65.33;;;;;1.67;66.06;100642.63;5132608;27;45234;-88
2024/01/16 02:56:26;;;;;;;;;82.67;64.00;;;;;1.69;65.56;100638.25;5105299;27;46988;-81
2024/01/16 02:58:52;;;;;;;;;82.33;68.00;;;;;1.49;65.90;100606.28;5120804;27;45584;-81
2024/01/16 03:01:17;;;;;;;;;89.67;69.00;;;;;1.57;65.92;100625.38;5135993;27;45447;-86
2024/01/16 03:03:43;;;;;;;;;90.33;73.00;;;;;1.57;66.07;100612.25;5134994;27;45282;-82
2024/01/16 03:06:08;;;;;;;;;80.33;64.33;;;;;1.59;66.49;100628.81;5121596;27;45941;-83
2024/01/16 03:08:34;;;;;;;;;84.67;63.00;;;;;1.55;65.97;100629.75;5103741;27;45392;-86
2024/01/16 03:10:59;;;;;;;;;89.33;68.67;;;;;1.57;65.44;100625.38;5120922;27;45461;-82
2024/01/16 03:13:24;;;;;;;;;93.00;72.00;;;;;1.55;65.61;100621.88;5121386;27;45140;-82
2024/01/16 03:15:50;;;;;;;;;88.33;69.33;;;;;1.48;65.18;100620.28;5126160;27;68542;-84
2024/01/16 03:18:16;;;;;;;;;96.67;75.00;;;;;1.47;65.89;100618.56;5122166;27;45297;-82
2024/01/16 03:20:43;;;;;;;;;87.00;68.00;;;;;1.40;65.70;100616.94;5121067;27;45267;-82
2024/01/16 03:23:08;;;;;;;;;91.67;70.33;;;;;1.40;65.88;100615.16;5135038;27;45458;-82
2024/01/16 03:25:38;;;;;;;;;91.33;70.33;;;;;1.22;65.44;100581.47;5119284;27;46422;-80
2024/01/16 03:28:04;;;;;;;;;91.33;72.33;;;;;1.41;65.27;100622.13;5119924;27;45426;-80
2024/01/16 03:30:29;;;;;;;;;92.33;67.67;;;;;1.44;65.57;100618.63;5131383;27;45500;-81
2024/01/16 03:32:55;;;;;;;;;101.67;73.33;;;;;1.45;65.60;100615.97;5125382;27;48804;-81
2024/01/16 03:35:20;;;;;;;;;97.00;73.00;;;;;1.41;65.38;100610.78;5123898;27;65126;-81
2024/01/16 03:37:45;;;;;;;;;93.33;68.00;;;;;1.45;65.38;100609.88;5139507;27;45161;-84
2024/01/16 03:40:12;;;;;;;;;84.67;69.33;;;;;1.46;65.31;100617.69;5139968;27;45222;-83
2024/01/16 03:42:37;;;;;;;;;95.00;71.00;;;;;1.39;65.98;100612.59;5125643;27;45466;-83
2024/01/16 03:45:02;;;;;;;;;72.00;60.00;;;;;1.51;65.60;100619.34;5134255;27;46998;-83
2024/01/16 03:47:28;;;;;;;;;91.67;69.67;;;;;1.60;64.89;100614.81;5120265;27;45463;-82
2024/01/16 03:49:53;;;;;;;;;89.00;69.33;;;;;1.50;64.78;100591.41;5119278;27;45204;-82
2024/01/16 03:52:18;;;;;;;;;76.33;61.00;;;;;1.66;64.05;100608.56;5120036;27;48553;-85
2024/01/16 03:54:44;;;;;;;;;63.50;48.00;;;;;1.67;63.42;100613.78;5126762;27;45602;-82
2024/01/16 03:57:09;;;;;;;;;69.67;54.33;;;;;1.58;63.54;100586.91;5125454;27;45294;-86
2024/01/16 03:59:37;;;;;;;;;66.00;52.67;;;;;1.68;63.86;100605.03;5134436;27;50315;-84
2024/01/16 04:02:03;;;;;;;;;64.67;50.67;;;;;1.72;63.24;100604.09;5122366;27;45598;-82
2024/01/16 04:04:28;;;;;;;;;76.00;58.33;;;;;1.83;62.99;100606.50;5138884;27;46372;-88
2024/01/16 04:06:53;;;;;;;;;36.50;32.25;;;;;1.91;63.37;100603.72;5122221;27;45382;-82
2024/01/16 04:09:19;;;;;;;;;68.33;52.33;;;;;1.85;62.51;100598.59;5135888;27;45256;-80
2024/01/16 04:11:44;;;;;;;;;48.75;45.50;;;;;1.81;63.07;100604.78;5140163;27;45646;-81
2024/01/16 04:14:10;;;;;;;;;72.00;57.33;;;;;1.77;63.84;100602.22;5126734;27;45335;-81
2024/01/16 04:16:35;;;;;;;;;82.67;67.33;;;;;1.73;64.60;100608.44;5136640;27;45368;-84
2024/01/16 04:19:00;;;;;;;;;80.67;58.00;;;;;1.73;64.92;100605.81;5139223;27;46803;-82
2024/01/16 04:21:25;;;;;;;;;82.33;66.33;;;;;1.76;64.88;100611.00;5121139;27;48083;-85
2024/01/16 04:23:51;;;;;;;;;70.67;54.67;;;;;1.76;64.34;100597.88;5120366;27;45449;-81
2024/01/16 04:26:16;;;;;;;;;84.33;63.00;;;;;1.76;64.07;100578.66;5117271;27;45966;-80
2024/01/16 04:28:42;;;;;;;;;31.50;27.25;;;;;1.76;63.54;100569.03;5128456;27;45335;-82
2024/01/16 04:31:08;;;;;;;;;39.75;34.25;;;;;1.96;62.40;100589.63;5126445;27;45514;-83
2024/01/16 04:33:33;;;;;;;;;40.25;33.25;;;;;1.94;62.70;100566.94;5132009;27;45486;-80
2024/01/16 04:35:58;;;;;;;;;37.75;33.75;;;;;2.02;62.11;100576.38;5125898;27;45276;-82
2024/01/16 04:38:24;;;;;;;;;37.00;31.50;;;;;2.11;62.00;100575.31;5130266;27;45602;-82
2024/01/16 04:40:50;;;;;;;;;36.75;34.50;;;;;2.17;61.79;100574.31;5141432;27;48851;-81
2024/01/16 04:43:15;;;;;;;;;30.75;26.25;;;;;2.19;60.95;100569.88;5121188;27;45333;-81
2024/01/16 04:45:41;;;;;;;;;36.75;35.00;;;;;2.17;60.81;100567.28;5116391;27;61615;-80
2024/01/16 04:48:08;;;;;;;;;28.25;21.00;;;;;2.20;61.70;100577.72;5133598;27;45393;-82
2024/01/16 04:50:33;;;;;;;;;37.00;29.75;;;;;2.21;61.10;100573.34;5132702;27;45607;-82
2024/01/16 04:53:02;;;;;;;;;29.00;28.50;;;;;2.04;60.95;100547.47;5124032;27;45371;-80
2024/01/16 04:55:29;;;;;;;;;39.25;33.00;;;;;2.19;60.99;100562.88;5127606;27;45243;-81
2024/01/16 04:57:56;;;;;;;;;30.25;27.75;;;;;2.22;60.71;100552.34;5136864;27;45539;-83
2024/01/16 05:00:22;;;;;;;;;38.00;32.25;;;;;2.29;60.48;100553.91;5131395;27;45504;-82
2024/01/16 05:02:47;;;;;;;;;46.00;38.25;;;;;2.20;60.41;100543.59;5130762;27;45474;-82
2024/01/16 05:05:13;;;;;;;;;42.50;33.75;;;;;2.11;60.56;100543.84;5109703;27;45475;-81
2024/01/16 05:07:38;;;;;;;;;42.50;31.75;;;;;2.09;60.86;100540.38;5112961;27;45525;-80
2024/01/16 05:10:05;;;;;;;;;59.50;46.00;;;;;2.10;61.85;100542.13;5123789;27;45296;-81
2024/01/16 05:12:30;;;;;;;;;27.00;25.75;;;;;2.06;60.43;100524.69;5125605;27;45468;-83
2024/01/16 05:14:55;;;;;;;;;36.75;29.25;;;;;2.16;60.18;100538.47;5127356;27;62645;-81
2024/01/16 05:17:20;;;;;;;;;52.00;42.75;;;;;2.01;60.65;100516.06;5133364;27;52246;-81
2024/01/16 05:19:46;;;;;;;;;25.25;21.00;;;;;1.96;60.72;100531.06;5137917;27;45577;-85
2024/01/16 05:22:11;;;;;;;;;41.25;36.25;;;;;1.95;60.88;100524.06;5130114;27;55274;-82
2024/01/16 05:24:37;;;;;;;;;48.50;43.75;;;;;1.98;61.61;100522.25;5120681;27;45227;-81
2024/01/16 05:27:04;;;;;;;;;41.25;39.75;;;;;1.94;60.63;100517.97;5118302;27;45229;-85
2024/01/16 05:29:29;;;;;;;;;56.50;42.75;;;;;1.92;60.98;100521.50;5121474;27;45423;-81
2024/01/16 05:31:55;;;;;;;;;60.75;47.00;;;;;1.90;61.55;100523.31;5128210;27;45353;-80
2024/01/16 05:34:20;;;;;;;;;52.25;45.75;;;;;1.88;61.85;100525.13;5122972;27;52124;-82
2024/01/16 05:36:45;;;;;;;;;34.25;31.75;;;;;1.81;61.02;100510.41;5122027;27;51465;-81
2024/01/16 05:39:11;;;;;;;;;70.00;58.33;;;;;1.78;62.81;100530.53;5129724;27;45814;-80
2024/01/16 05:41:37;;;;;;;;;82.33;65.00;;;;;1.71;64.05;100521.09;5117827;27;46124;-81
2024/01/16 05:44:05;;;;;;;;;74.33;62.00;;;;;1.65;64.47;100533.44;5124833;27;45377;-80
2024/01/16 05:46:34;;;;;;;;;82.33;62.00;;;;;1.60;64.43;100524.84;5125775;27;45303;-81
2024/01/16 05:48:59;;;;;;;;;65.33;52.33;;;;;1.62;63.39;100518.66;5141059;27;45615;-82
2024/01/16 05:51:27;;;;;;;;;90.00;68.67;;;;;1.56;64.36;100508.28;5123372;27;46194;-82
2024/01/16 05:53:52;;;;;;;;;86.33;65.33;;;;;1.53;64.70;100513.59;5122168;27;45304;-83
2024/01/16 05:56:18;;;;;;;;;88.33;63.00;;;;;1.46;65.97;100507.63;5120287;27;45356;-82
2024/01/16 05:58:43;;;;;;;;;88.00;66.67;;;;;1.42;65.05;100500.69;5121657;27;57792;-81
2024/01/16 06:01:08;;;;;;;;;76.67;61.33;;;;;1.39;65.74;100505.16;5124073;27;60751;-80
2024/01/16 06:03:34;;;;;;;;;92.00;70.67;;;;;1.36;66.39;100510.47;5118505;27;45570;-85
2024/01/16 06:05:59;;;;;;;;;82.00;63.33;;;;;1.26;66.58;100503.66;5132923;27;56765;-88
2024/01/16 06:08:25;;;;;;;;;87.00;68.00;;;;;1.34;67.22;100507.00;5123365;27;45653;-80
2024/01/16 06:10:50;;;;;;;;;89.33;67.33;;;;;1.33;66.67;100500.03;5121856;27;46189;-80
2024/01/16 06:13:18;;;;;;;;;95.00;71.67;;;;;1.32;66.25;100501.81;5123134;27;45221;-79
2024/01/16 06:15:44;;;;;;;;;93.00;70.33;;;;;1.30;66.17;100495.72;5122120;27;45381;-81
2024/01/16 06:18:09;;;;;;;;;90.67;66.00;;;;;1.26;66.30;100503.66;5130307;27;45637;-82
2024/01/16 06:20:35;;;;;;;;;90.00;66.67;;;;;1.23;66.46;100503.72;5125421;27;47076;-81
2024/01/16 06:23:00;;;;;;;;;88.33;69.67;;;;;1.16;66.30;100503.81;5124154;27;45453;-80
2024/01/16 06:25:26;;;;;;;;;91.67;69.33;;;;;1.15;66.25;100502.09;5121054;27;45336;-80
2024/01/16 06:27:51;;;;;;;;;89.00;65.00;;;;;1.14;66.46;100510.84;5132852;27;61223;-80
2024/01/16 06:30:16;;;;;;;;;90.00;68.67;;;;;1.10;65.95;100514.44;5137820;27;46041;-82
2024/01/16 06:32:42;;;;;;;;;95.00;74.00;;;;;1.05;66.24;100511.06;5126747;27;45509;-79
2024/01/16 06:35:08;;;;;;;;;88.67;68.67;;;;;1.01;66.71;100513.72;5124774;27;57833;-81
2024/01/16 06:37:33;;;;;;;;;84.00;65.00;;;;;0.85;66.73;100503.53;5126685;27;45673;-78
2024/01/16 06:39:59;;;;;;;;;95.00;72.33;;;;;0.86;67.24;100500.03;5123056;27;60957;-79
2024/01/16 06:42:24;;;;;;;;;91.33;69.00;;;;;0.76;66.33;100492.38;5120148;27;46989;-77
2024/01/16 06:44:49;;;;;;;;;83.00;66.33;;;;;0.82;66.97;100513.22;5123107;27;46189;-79
2024/01/16 06:47:15;;;;;;;;;86.00;67.00;;;;;0.79;67.17;100521.13;5122095;27;45440;-82
2024/01/16 06:49:40;;;;;;;;;94.67;70.67;;;;;0.80;66.52;100528.09;5131998;27;45499;-79
2024/01/16 06:52:07;;;;;;;;;81.33;66.33;;;;;0.79;67.25;100521.13;5122870;27;55114;-79
2024/01/16 06:54:32;;;;;;;;;97.67;72.67;;;;;0.80;67.10;100528.09;5127228;27;45349;-81
2024/01/16 06:56:58;;;;;;;;;90.67;71.00;;;;;0.77;67.44;100512.41;5139925;27;47008;-79
2024/01/16 06:59:23;;;;;;;;;90.00;70.67;;;;;0.77;67.17;100520.25;5139007;27;52446;-80
2024/01/16 07:01:48;;;;;;;;;95.00;72.00;;;;;0.80;67.14;100515.00;5119772;27;63033;-80
2024/01/16 07:04:14;;;;;;;;;94.00;72.33;;;;;0.75;66.88;100504.59;5117373;27;45413;-80
2024/01/16 07:06:40;;;;;;;;;93.00;70.00;;;;;0.86;67.56;100525.34;5117367;27;46388;-78
2024/01/16 07:09:05;;;;;;;;;101.67;75.00;;;;;0.87;66.96;100517.47;5121169;27;45721;-79
2024/01/16 07:11:30;;;;;;;;;92.00;68.00;;;;;0.90;67.05;100521.78;5138844;27;45307;-80
2024/01/16 07:13:56;;;;;;;;;86.00;65.67;;;;;0.97;67.12;100507.69;5121503;27;45538;-79
2024/01/16 07:16:21;;;;;;;;;92.00;72.67;;;;;1.05;67.03;100524.16;5118771;27;45412;-81
2024/01/16 07:18:46;;;;;;;;;99.00;75.00;;;;;1.09;67.14;100528.44;5120971;27;58583;-79
2024/01/16 07:21:19;;;;;;;;;91.67;67.67;;;;;1.09;67.48;100511.84;5117876;27;45356;-79
2024/01/16 07:23:44;;;;;;;;;86.67;68.00;;;;;1.12;67.00;100523.13;5118471;27;45302;-80
2024/01/16 07:26:09;;;;;;;;;87.33;70.67;;;;;1.10;67.49;100517.06;5118743;27;45358;-79
2024/01/16 07:28:38;;;;;;;;;86.67;68.00;;;;;1.04;67.42;100518.91;5118397;27;46577;-82
2024/01/16 07:31:03;;;;;;;;;83.00;68.33;;;;;0.97;67.42;100512.94;5118865;27;45330;-83
2024/01/16 07:33:29;;;;;;;;;85.33;65.33;;;;;0.97;67.43;100512.94;5118992;27;45341;-80
2024/01/16 07:35:54;;;;;;;;;93.67;69.67;;;;;1.08;66.90;100531.94;5119493;27;45470;-88
2024/01/16 07:38:20;;;;;;;;;92.33;69.67;;;;;1.01;67.16;100518.97;5119539;27;46136;-84
2024/01/16 07:40:45;;;;;;;;;78.33;60.00;;;;;1.09;66.40;100538.91;5120048;27;45203;-84
2024/01/16 07:43:11;;;;;;;;;91.33;70.33;;;;;0.98;66.99;100508.56;5119770;27;45148;-84
2024/01/16 07:45:37;;;;;;;;;87.67;68.00;;;;;1.02;67.31;100500.59;5119427;27;45279;-79
2024/01/16 07:48:03;;;;;;;;;88.33;68.00;;;;;0.98;66.63;100506.81;5118397;27;46106;-79
2024/01/16 07:50:28;;;;;;;;;85.33;68.67;;;;;0.91;67.11;100513.03;5118387;27;45361;-81
2024/01/16 07:52:53;;;;;;;;;91.00;72.33;;;;;0.92;66.86;100524.41;5118433;27;45312;-81
2024/01/16 07:55:19;;;;;;;;;91.67;72.33;;;;;0.96;67.21;100532.16;5119963;27;45481;-84
2024/01/16 07:57:44;;;;;;;;;92.00;72.33;;;;;0.98;67.31;100514.66;5119253;27;45402;-82
2024/01/16 08:00:13;;;;;;;;;91.67;69.67;;;;;1.09;66.59;100522.31;5118590;27;45423;-80
2024/01/16 08:02:39;;;;;;;;;91.00;70.00;;;;;1.12;67.05;100530.97;5118393;27;45364;-79
2024/01/16 08:05:05;;;;;;;;;90.33;70.67;;;;;1.16;66.32;100530.03;5100905;27;45231;-80
2024/01/16 08:07:31;;;;;;;;;93.00;68.67;;;;;1.19;66.42;100531.75;5100420;27;46484;-81
2024/01/16 08:09:56;;;;;;;;;84.00;65.00;;;;;1.23;66.43;100516.81;5118721;27;45239;-81
2024/01/16 08:12:22;;;;;;;;;87.33;67.33;;;;;1.20;66.21;100530.00;5118968;27;45475;-82
2024/01/16 08:14:47;;;;;;;;;80.67;62.67;;;;;1.17;65.89;100529.16;5118576;27;45535;-79
2024/01/16 08:17:12;;;;;;;;;88.67;68.00;;;;;1.21;66.44;100524.72;5117729;27;61177;-84
2024/01/16 08:19:38;;;;;;;;;96.33;72.00;;;;;1.18;66.24;100532.66;5119984;27;55549;-83
2024/01/16 08:22:04;;;;;;;;;97.33;70.33;;;;;1.13;66.21;100511.75;5100675;27;45265;-80
2024/01/16 08:24:29;;;;;;;;;90.00;67.33;;;;;1.22;66.17;100528.19;5119071;27;45556;-82
2024/01/16 08:26:57;;;;;;;;;81.00;67.33;;;;;1.24;66.15;100526.41;5120372;27;46078;-82
2024/01/16 08:29:22;;;;;;;;;91.33;69.67;;;;;1.14;66.28;100513.47;5118323;27;45523;-80
2024/01/16 08:31:48;;;;;;;;;85.67;65.33;;;;;1.28;66.11;100534.16;5118732;27;45318;-81
2024/01/16 08:34:13;;;;;;;;;95.67;70.33;;;;;1.33;65.69;100531.47;5121872;27;45381;-80
2024/01/16 08:36:40;;;;;;;;;83.33;66.00;;;;;1.37;66.34;100538.38;5106803;27;46845;-80
2024/01/16 08:39:05;;;;;;;;;95.33;71.00;;;;;1.48;65.87;100549.53;5125136;27;45279;-85
2024/01/16 08:41:31;;;;;;;;;89.00;67.33;;;;;1.50;65.14;100539.88;5120491;27;45276;-82
2024/01/16 08:43:56;;;;;;;;;94.33;66.33;;;;;1.59;64.98;100533.59;5122582;27;45234;-84
2024/01/16 08:46:22;;;;;;;;;93.67;71.67;;;;;1.59;64.93;100542.31;5123613;27;45974;-80
2024/01/16 08:48:48;;;;;;;;;89.33;69.00;;;;;1.68;65.24;100525.50;5127665;27;45268;-81
2024/01/16 08:51:14;;;;;;;;;86.33;66.33;;;;;1.68;64.43;100521.13;5109505;27;45457;-86
2024/01/16 08:53:39;;;;;;;;;83.33;64.00;;;;;1.66;65.03;100507.19;5124487;27;45452;-82
2024/01/16 08:56:06;;;;;;;;;85.33;63.33;;;;;1.79;64.12;100513.06;5122186;27;45575;-84
2024/01/16 08:58:35;;;;;;;;;90.00;68.67;;;;;1.83;64.37;100511.25;5122948;27;45428;-81
2024/01/16 09:01:02;;;;;;;;;89.00;69.67;;;;;1.66;65.12;100488.84;5122898;27;45298;-82
2024/01/16 09:03:27;;;;;;;;;92.67;71.00;;;;;1.80;65.08;100522.63;5124332;27;45364;-81
2024/01/16 09:05:53;;;;;;;;;89.33;68.33;;;;;1.74;64.94;100510.53;5122300;27;57051;-80
2024/01/16 09:08:18;;;;;;;;;92.33;71.33;;;;;1.75;65.02;100514.03;5103150;27;45230;-85
2024/01/16 09:10:43;;;;;;;;;97.00;74.67;;;;;1.71;64.96;100523.72;5120338;27;45333;-81
2024/01/16 09:13:08;;;;;;;;;95.33;75.67;;;;;1.66;64.96;100509.81;5121487;27;50676;-80
2024/01/16 09:15:34;;;;;;;;;97.00;75.00;;;;;1.55;65.25;100495.22;5121840;27;45365;-80
2024/01/16 09:17:59;;;;;;;;;91.00;72.00;;;;;1.62;65.51;100523.03;5103238;27;45367;-85
2024/01/16 09:20:25;;;;;;;;;91.67;74.67;;;;;1.61;66.06;100519.56;5122585;27;46123;-82
2024/01/16 09:22:50;;;;;;;;;97.00;76.00;;;;;1.67;65.46;100514.16;5121446;27;45420;-83
2024/01/16 09:25:16;;;;;;;;;105.33;84.00;;;;;1.72;65.81;100509.72;5122211;27;46615;-83
2024/01/16 09:27:42;;;;;;;;;91.00;68.67;;;;;1.83;64.97;100506.00;5122005;27;45551;-85
2024/01/16 09:30:08;;;;;;;;;100.33;81.33;;;;;1.85;64.94;100505.06;5122845;27;45319;-87
2024/01/16 09:32:35;;;;;;;;;98.67;77.33;;;;;2.02;65.09;100509.94;5123275;27;45534;-82
2024/01/16 09:35:03;;;;;;;;;99.67;79.67;;;;;2.04;64.37;100503.75;5121594;27;45917;-86
2024/01/16 09:37:28;;;;;;;;;101.33;77.67;;;;;2.00;64.48;100499.47;5121605;27;45299;-84
2024/01/16 09:39:54;;;;;;;;;98.67;79.00;;;;;2.11;63.83;100496.63;5121823;27;45253;-88
2024/01/16 09:42:19;;;;;;;;;89.33;65.00;;;;;2.15;63.86;100487.78;5123369;27;45524;-85
2024/01/16 09:44:46;;;;;;;;;100.67;79.00;;;;;2.16;64.12;100481.63;5123158;27;45440;-83
2024/01/16 09:47:12;;;;;;;;;105.33;76.67;;;;;2.19;63.67;100473.66;5121919;27;45432;-84
2024/01/16 09:49:39;;;;;;;;;97.00;75.67;;;;;2.32;63.18;100485.59;5103311;27;45349;-84
2024/01/16 09:52:05;;;;;;;;;103.67;81.00;;;;;2.41;63.01;100483.66;5123452;27;45662;-83
2024/01/16 09:54:30;;;;;;;;;97.00;73.67;;;;;2.40;62.88;100471.44;5121296;27;46110;-84
2024/01/16 09:56:58;;;;;;;;;98.00;72.67;;;;;2.53;62.71;100483.38;5121153;27;45254;-79
2024/01/16 09:59:25;;;;;;;;;97.33;75.33;;;;;2.61;62.05;100481.41;5122112;27;45230;-82
2024/01/16 10:01:54;;;;;;;;;96.33;76.67;;;;;2.58;62.17;100466.59;5106310;27;45549;-81
2024/01/16 10:04:19;;;;;;;;;101.67;80.00;;;;;2.79;61.84;100490.59;5122776;27;46812;-82
2024/01/16 10:06:49;;;;;;;;;103.00;74.00;;;;;2.86;61.72;100487.75;5121720;27;45356;-80
2024/01/16 10:09:15;;;;;;;;;106.00;79.67;;;;;2.93;61.72;100480.56;5120858;27;45227;-80
2024/01/16 10:11:41;;;;;;;;;105.00;76.33;;;;;3.11;61.11;100476.59;5120327;27;45433;-80
2024/01/16 10:14:07;;;;;;;;;101.67;83.33;;;;;3.26;60.89;100476.19;5101237;27;47475;-79
2024/01/16 10:16:54;;;;;;;;;101.67;82.33;;;;;3.46;60.12;100473.84;5119736;27;45268;-80
2024/01/16 10:19:20;;;;;;;;;99.67;80.33;;;;;3.61;59.87;100476.91;5120288;27;45363;-81
2024/01/16 10:21:46;;;;;;;;;100.00;85.00;;;;;3.75;59.10;100474.75;5102113;27;45720;-84
2024/01/16 10:24:13;;;;;;;;;104.33;86.67;;;;;3.84;58.97;100475.34;5122744;27;45329;-84
2024/01/16 10:26:38;;;;;;;;;107.67;91.33;;;;;3.97;58.44;100459.19;5122614;27;45344;-83
2024/01/16 10:29:06;;;;;;;;;104.00;84.67;;;;;4.19;58.03;100470.75;5105867;27;45398;-82
2024/01/16 10:31:31;;;;;;;;;108.33;93.67;;;;;4.35;57.36;100463.22;5121934;27;45333;-83
2024/01/16 10:33:57;;;;;;;;;99.67;83.33;;;;;4.56;56.41;100449.34;5120890;27;46118;-84
2024/01/16 10:36:23;;;;;;;;;110.00;91.67;;;;;4.61;55.92;100442.16;5124092;27;45313;-79
2024/01/16 10:38:57;;;;;;;;;105.67;85.00;;;;;4.84;56.06;100440.50;5122053;27;45459;-81
2024/01/16 10:41:25;;;;;;;;;103.67;91.33;;;;;5.13;55.63;100448.22;5120826;27;45414;-83
2024/01/16 10:44:09;;;;;;;;;102.67;85.33;;;;;5.40;55.17;100448.16;5121528;27;46239;-81
2024/01/16 10:46:36;;;;;;;;;101.33;83.00;;;;;5.66;53.22;100440.09;5120007;27;45301;-82
2024/01/16 10:49:03;;;;;;;;;95.67;75.33;;;;;5.73;53.27;100425.78;5120015;27;45324;-82
2024/01/16 10:51:30;;;;;;;;;103.67;89.33;;;;;5.88;52.32;100435.72;5120242;27;45532;-82
2024/01/16 10:54:10;;;;;;;;;96.67;81.67;;;;;6.04;52.70;100421.94;5119986;27;45413;-81
2024/01/16 10:56:36;;;;;;;;;95.33;81.00;;;;;6.34;52.40;100438.31;5120592;27;45533;-82
2024/01/16 10:59:24;;;;;;;;;98.33;76.67;;;;;6.68;51.77;100419.28;5120332;27;45401;-81
2024/01/16 11:01:56;;;;;;;;;86.67;67.00;;;;;6.92;50.25;100409.44;5119879;27;45297;-78
2024/01/16 11:04:22;;;;;;;;;90.67;69.67;;;;;7.14;48.74;100409.34;5119806;27;46324;-83
2024/01/16 11:06:51;;;;;;;;;91.67;74.67;;;;;7.35;48.58;100411.03;5120967;27;45401;-84
2024/01/16 11:09:16;;;;;;;;;94.67;74.33;;;;;7.51;48.60;100414.66;5120881;27;45341;-82
2024/01/16 11:11:45;;;;;;;;;93.67;73.00;;;;;7.66;47.74;100400.72;5118879;27;45401;-84